createdAt,value
2019-05-29T00:01:49.128Z,13.20
2019-05-29T00:06:40.768Z,13.60
2019-05-29T00:11:32.413Z,13.60
2019-05-29T00:16:24.054Z,13.10
2019-05-29T00:21:14.999Z,13.10
2019-05-29T00:26:06.308Z,12.70
2019-05-29T00:30:56.811Z,13.20
2019-05-29T00:35:48.447Z,13.10
2019-05-29T00:40:39.347Z,13.10
2019-05-29T00:45:30.985Z,12.90
2019-05-29T00:50:22.610Z,13.40
2019-05-29T00:55:14.597Z,13.40
2019-05-29T01:00:04.411Z,13.20
2019-05-29T01:04:55.302Z,12.70
2019-05-29T01:09:46.244Z,12.50
2019-05-29T01:14:49.218Z,13.00
2019-05-29T01:19:28.067Z,13.10
2019-05-29T01:24:18.978Z,12.70
2019-05-29T01:29:09.875Z,12.30
2019-05-29T01:34:01.501Z,13.10
2019-05-29T01:38:53.142Z,12.70
2019-05-29T01:43:44.782Z,12.30
2019-05-29T01:48:36.431Z,12.40
2019-05-29T01:53:27.990Z,12.40
2019-05-29T01:58:18.243Z,13.00
2019-05-29T02:03:09.134Z,12.90
2019-05-29T02:08:00.038Z,12.40
2019-05-29T02:12:50.936Z,12.10
2019-05-29T02:17:41.855Z,12.70
2019-05-29T02:22:32.743Z,13.00
2019-05-29T02:27:25.506Z,12.20
2019-05-29T02:32:15.301Z,12.20
2019-05-29T02:37:06.947Z,13.10
2019-05-29T02:41:57.896Z,13.00
2019-05-29T02:46:49.500Z,12.40
2019-05-29T02:51:40.392Z,12.40
2019-05-29T02:56:32.039Z,12.60
2019-05-29T03:01:25.156Z,12.90
2019-05-29T03:06:14.635Z,12.90
2019-05-29T03:11:06.358Z,12.10
2019-05-29T03:16:09.478Z,12.10
2019-05-29T03:20:48.186Z,12.10
2019-05-29T03:25:39.083Z,12.70
2019-05-29T03:30:37.387Z,12.20
2019-05-29T03:35:22.470Z,11.90
2019-05-29T03:40:14.090Z,12.30
2019-05-29T03:45:04.984Z,12.30
2019-05-29T03:49:55.887Z,12.80
2019-05-29T03:54:46.782Z,12.50
2019-05-29T03:59:37.714Z,12.10
2019-05-29T04:04:29.045Z,11.80
2019-05-29T04:09:19.533Z,12.40
2019-05-29T04:14:10.434Z,12.70
2019-05-29T04:19:02.070Z,12.00
2019-05-29T04:23:53.752Z,11.90
2019-05-29T04:28:44.638Z,11.90
2019-05-29T04:33:36.784Z,12.70
2019-05-29T04:38:26.441Z,12.70
2019-05-29T04:43:17.344Z,12.40
2019-05-29T04:48:08.235Z,12.10
2019-05-29T04:52:59.135Z,12.10
2019-05-29T04:57:50.929Z,12.90
2019-05-29T05:02:42.203Z,12.90
2019-05-29T05:07:33.245Z,12.40
2019-05-29T05:12:24.057Z,12.20
2019-05-29T05:17:25.901Z,12.40
2019-05-29T05:22:05.870Z,13.10
2019-05-29T05:26:56.767Z,13.10
2019-05-29T05:31:47.677Z,12.70
2019-05-29T05:36:38.879Z,12.40
2019-05-29T05:41:30.785Z,13.40
2019-05-29T05:46:24.705Z,13.30
2019-05-29T05:51:12.827Z,13.30
2019-05-29T05:56:03.710Z,13.00
2019-05-29T06:00:55.346Z,12.80
2019-05-29T06:05:46.987Z,13.60
2019-05-29T06:10:38.631Z,13.50
2019-05-29T06:15:30.259Z,13.20
2019-05-29T06:20:21.185Z,13.20
2019-05-29T06:25:12.140Z,12.90
2019-05-29T06:30:03.923Z,13.00
2019-05-29T06:34:54.812Z,13.80
2019-05-29T06:39:45.763Z,13.70
2019-05-29T06:44:39.260Z,13.40
2019-05-29T06:49:27.622Z,13.10
2019-05-29T06:54:18.556Z,13.10
2019-05-29T06:59:09.526Z,13.90
2019-05-29T07:04:11.445Z,14.00
2019-05-29T07:08:51.347Z,13.70
2019-05-29T07:13:45.308Z,13.50
2019-05-29T07:18:34.059Z,14.10
2019-05-29T07:23:24.959Z,14.10
2019-05-29T07:28:16.614Z,14.60
2019-05-29T07:33:07.544Z,14.50
2019-05-29T07:37:58.456Z,14.30
2019-05-29T07:42:55.145Z,14.20
2019-05-29T07:47:40.559Z,14.70
2019-05-29T07:52:32.014Z,15.30
2019-05-29T07:57:23.660Z,15.10
2019-05-29T08:02:14.555Z,15.10
2019-05-29T08:07:05.442Z,14.90
2019-05-29T08:11:56.336Z,15.00
2019-05-29T08:16:48.104Z,15.70
2019-05-29T08:21:38.305Z,15.90
2019-05-29T08:26:29.148Z,15.70
2019-05-29T08:31:20.794Z,15.30
2019-05-29T08:36:12.425Z,15.80
2019-05-29T08:41:05.982Z,16.30
2019-05-29T08:45:54.997Z,16.30
2019-05-29T08:50:45.897Z,16.30
2019-05-29T08:55:37.551Z,15.90
2019-05-29T09:00:28.439Z,15.90
2019-05-29T09:05:19.332Z,15.80
2019-05-29T09:10:10.237Z,16.50
2019-05-29T09:15:01.151Z,16.90
2019-05-29T09:19:52.064Z,16.60
2019-05-29T09:24:42.955Z,16.40
2019-05-29T09:29:34.591Z,16.10
2019-05-29T09:34:26.230Z,16.70
2019-05-29T09:39:18.404Z,16.70
2019-05-29T09:44:08.067Z,17.10
2019-05-29T09:49:01.497Z,17.00
2019-05-29T09:53:49.921Z,16.70
2019-05-29T09:58:40.816Z,16.40
2019-05-29T10:03:32.463Z,17.30
2019-05-29T10:08:23.358Z,17.30
2019-05-29T10:13:14.994Z,17.20
2019-05-29T10:18:13.275Z,16.90
2019-05-29T10:22:57.546Z,16.90
2019-05-29T10:27:48.472Z,16.70
2019-05-29T10:32:40.103Z,17.80
2019-05-29T10:37:31.207Z,17.80
2019-05-29T10:42:22.136Z,17.80
2019-05-29T10:47:13.030Z,17.60
2019-05-29T10:52:14.572Z,17.40
2019-05-29T10:56:55.061Z,17.30
2019-05-29T11:01:46.930Z,18.20
2019-05-29T11:06:40.556Z,18.70
2019-05-29T11:11:27.599Z,18.50
2019-05-29T11:16:18.494Z,18.40
2019-05-29T11:21:09.396Z,18.30
2019-05-29T11:26:01.039Z,19.60
2019-05-29T11:30:53.584Z,19.50
2019-05-29T11:35:57.173Z,19.90
2019-05-29T11:40:33.911Z,19.90
2019-05-29T11:45:24.825Z,19.90
2019-05-29T11:50:19.894Z,20.90
2019-05-29T11:55:08.304Z,20.80
2019-05-29T12:00:05.885Z,21.70
2019-05-29T12:04:49.310Z,22.00
2019-05-29T12:09:40.964Z,22.20
2019-05-29T12:14:31.883Z,22.20
2019-05-29T12:19:22.794Z,22.50
2019-05-29T12:24:13.686Z,23.40
2019-05-29T12:29:11.012Z,23.80
2019-05-29T12:33:55.493Z,23.80
2019-05-29T12:38:46.418Z,23.90
2019-05-29T12:43:37.323Z,24.10
2019-05-29T12:48:28.224Z,24.50
2019-05-29T12:53:29.712Z,25.10
2019-05-29T12:58:10.039Z,25.30
2019-05-29T13:03:00.959Z,25.30
2019-05-29T13:07:51.860Z,25.30
2019-05-29T13:12:43.819Z,25.70
2019-05-29T13:17:34.457Z,25.70
2019-05-29T13:22:25.358Z,26.10
2019-05-29T13:27:16.287Z,26.00
2019-05-29T13:32:07.640Z,25.80
2019-05-29T13:37:00.812Z,25.60
2019-05-29T13:41:49.074Z,25.30
2019-05-29T13:46:39.989Z,25.40
2019-05-29T13:51:30.925Z,25.30
2019-05-29T13:56:24.300Z,24.50
2019-05-29T14:01:13.506Z,24.50
2019-05-29T14:06:05.861Z,24.70
2019-05-29T14:10:56.068Z,24.70
2019-05-29T14:15:46.992Z,25.20
2019-05-29T14:20:37.902Z,25.00
2019-05-29T14:25:29.539Z,24.50
2019-05-29T14:30:21.170Z,24.50
2019-05-29T14:35:13.341Z,25.00
2019-05-29T14:40:03.737Z,25.00
2019-05-29T14:44:54.639Z,25.50
2019-05-29T14:49:46.286Z,25.20
2019-05-29T14:54:41.857Z,25.20
2019-05-29T14:59:28.157Z,25.00
2019-05-29T15:04:19.067Z,25.20
2019-05-29T15:09:09.988Z,25.60
2019-05-29T15:14:00.876Z,25.80
2019-05-29T15:18:51.795Z,25.60
2019-05-29T15:23:42.857Z,25.20
2019-05-29T15:28:33.774Z,25.00
2019-05-29T15:33:24.690Z,25.00
2019-05-29T15:38:16.942Z,25.40
2019-05-29T15:43:06.680Z,25.30
2019-05-29T15:47:57.451Z,24.80
2019-05-29T15:52:48.348Z,24.40
2019-05-29T15:57:39.332Z,24.10
2019-05-29T16:02:30.988Z,24.50
2019-05-29T16:07:21.887Z,24.40
2019-05-29T16:12:14.769Z,23.50
2019-05-29T16:17:04.446Z,23.50
2019-05-29T16:21:56.075Z,22.80
2019-05-29T16:26:47.742Z,23.00
2019-05-29T16:31:38.697Z,23.00
2019-05-29T16:36:29.586Z,23.20
2019-05-29T16:41:20.483Z,22.70
2019-05-29T16:46:16.914Z,21.70
2019-05-29T16:51:03.037Z,21.70
2019-05-29T16:55:54.762Z,21.90
2019-05-29T17:00:45.606Z,21.90
2019-05-29T17:05:36.499Z,21.90
2019-05-29T17:10:32.152Z,20.90
2019-05-29T17:15:23.048Z,20.90
2019-05-29T17:20:14.779Z,20.40
2019-05-29T17:25:05.590Z,20.40
2019-05-29T17:29:56.474Z,20.80
2019-05-29T17:34:47.375Z,20.80
2019-05-29T17:39:38.266Z,20.30
2019-05-29T17:44:29.908Z,19.40
2019-05-29T17:49:28.842Z,19.30
2019-05-29T17:54:11.748Z,19.30
2019-05-29T17:59:02.658Z,19.80
2019-05-29T18:03:54.292Z,19.30
2019-05-29T18:08:52.092Z,19.20
2019-05-29T18:13:42.991Z,18.80
2019-05-29T18:18:33.890Z,18.40
2019-05-29T18:23:26.185Z,18.30
2019-05-29T18:28:15.886Z,18.90
2019-05-29T18:33:06.774Z,18.90
2019-05-29T18:37:57.671Z,18.50
2019-05-29T18:42:49.303Z,17.60
2019-05-29T18:47:40.969Z,17.30
2019-05-29T18:52:32.850Z,17.30
2019-05-29T18:57:22.921Z,17.90
2019-05-29T19:02:13.718Z,18.10
2019-05-29T19:07:04.692Z,17.60
2019-05-29T19:11:55.606Z,17.10
2019-05-29T19:16:46.547Z,16.70
2019-05-29T19:21:37.542Z,16.40
2019-05-29T19:26:28.795Z,16.80
2019-05-29T19:31:19.364Z,17.00
2019-05-29T19:36:10.267Z,16.60
2019-05-29T19:41:01.208Z,16.10
2019-05-29T19:45:52.129Z,15.60
2019-05-29T19:50:43.043Z,15.30
2019-05-29T19:55:37.824Z,15.60
2019-05-29T20:00:25.930Z,15.90
2019-05-29T20:05:16.534Z,15.20
2019-05-29T20:10:07.630Z,15.10
2019-05-29T20:14:58.566Z,14.70
2019-05-29T20:19:49.472Z,14.30
2019-05-29T20:24:40.362Z,14.20
2019-05-29T20:29:32.376Z,14.80
2019-05-29T20:34:22.358Z,14.70
2019-05-29T20:39:13.262Z,14.30
2019-05-29T20:44:04.208Z,13.80
2019-05-29T20:48:55.099Z,13.40
2019-05-29T20:53:46.003Z,13.10
2019-05-29T20:58:37.756Z,13.30
2019-05-29T21:03:27.819Z,13.90
2019-05-29T21:08:18.775Z,13.70
2019-05-29T21:13:09.677Z,13.20
2019-05-29T21:18:00.589Z,12.80
2019-05-29T21:22:51.491Z,12.40
2019-05-29T21:27:46.928Z,12.20
2019-05-29T21:32:33.406Z,12.90
2019-05-29T21:37:25.114Z,12.50
2019-05-29T21:42:16.014Z,12.50
2019-05-29T21:47:06.902Z,12.10
2019-05-29T21:51:57.867Z,11.70
2019-05-29T21:56:48.775Z,11.40
2019-05-29T22:01:39.875Z,11.50
2019-05-29T22:06:30.607Z,12.20
2019-05-29T22:11:21.498Z,12.10
2019-05-29T22:16:12.406Z,11.60
2019-05-29T22:21:04.046Z,10.80
2019-05-29T22:25:55.294Z,10.80
2019-05-29T22:30:45.915Z,10.50
2019-05-29T22:35:36.820Z,10.30
2019-05-29T22:40:27.710Z,11.00
2019-05-29T22:45:19.419Z,11.00
2019-05-29T22:50:10.341Z,11.00
2019-05-29T22:55:02.332Z,10.60
2019-05-29T22:59:52.161Z,10.20
2019-05-29T23:04:43.067Z,9.90
2019-05-29T23:09:33.965Z,9.80
2019-05-29T23:14:24.881Z,10.60
2019-05-29T23:19:15.796Z,10.70
2019-05-29T23:24:06.690Z,10.30
2019-05-29T23:28:59.283Z,9.50
2019-05-29T23:33:49.299Z,9.40
2019-05-29T23:38:40.227Z,9.20
2019-05-29T23:43:31.123Z,8.90
2019-05-29T23:48:22.020Z,9.40
2019-05-29T23:53:12.910Z,10.10
2019-05-29T23:58:07.830Z,9.50
